LIMJ Airport Information

Runway Information
Runway 10 Length 9564 ft width 148 ft
Elevation 9 ft Threshold 0 ft Heading 105
Runway 28 Length 9564 ft Width 148 ft
Elevation 12 ft Threshold 528 ft Heading 285
Airport Frequencies
Type APP Name APP Frequency 119.6 MHZ
Type ATIS Name ATIS Frequency 122.825 MHZ
Type TWR Name TWR Frequency 118.6 MHZ
Airport Navaids
Type VOR-DME Name Genova Frequency 112800 KHZ
Type NDB Name Genova Frequency 318 KHZ
Type VOR-DME Name Genova Sestri Frequency 108600 KHZ
Airport Weather Information & NOTAM
ADDS - METARS form results

(0843 UTC 15 December 2018)
Data provider http://aviationweather.gov/metar/data/
 
METAR text: LIMJ 150820Z 06008KT CAVOK 04/M05 Q1019
Conditions at: LIMJ (GENOVA/SESTRI , IT) observed 0820 UTC 15 December 2018
Temperature: 4.0°C (39°F)
Dewpoint: -5.0°C (23°F) [RH = 52%]
Pressure (altimeter): 30.09 inches Hg (1019.0 mb)
Winds: from the ENE (60 degrees) at 9 MPH (8 knots; 4.1 m/s)
Visibility: 6 or more miles (10+ km)
Ceiling: ceiling and visibility are OK
Clouds: unknown
Weather: no significant weather observed at this time

METAR text: LIMJ 150750Z 08007KT 040V100 CAVOK 04/M05 Q1019
Conditions at: LIMJ (GENOVA/SESTRI , IT) observed 0750 UTC 15 December 2018
Temperature: 4.0°C (39°F)
Dewpoint: -5.0°C (23°F) [RH = 52%]
Pressure (altimeter): 30.09 inches Hg (1019.0 mb)
Winds: from the E (80 degrees) at 8 MPH (7 knots; 3.6 m/s)
Visibility: 6 or more miles (10+ km)
Ceiling: ceiling and visibility are OK
Clouds: unknown
Weather: no significant weather observed at this time

Forecast for: LIMJ (GENOVA/SESTRI , IT)
Text: TAF LIMJ 150500Z 1506/1606 02010KT CAVOK
Forecast period: 0600 UTC 15 December 2018 to 0600 UTC 16 December 2018
Forecast type: FROM: standard forecast or significant change
Winds: from the NNE (20 degrees) at 12 MPH (10 knots; 5.1 m/s)
Visibility: 6 or more miles 10+ km)
Ceiling: unknown
Clouds: missing
Weather: NSW  (no significant weather)